.
WxDataArchive / Data Records for 2006-10-26
2006-10-25 October 2006 2006-10-27

Data Records for Thursday, 26 October 2006

Time	Temp	Chill	HIndex	Humid	Dewpt	 Wind 	HiWind	WindDir	Rain 	Barom 
-----	----	-----	------	-----	-----	------	------	-------	-----	----- 
00:00	30.7	30.7	30.7	87	27.3	0	0	---	0.00	30.190 
00:05	30.6	30.6	30.6	87	27.2	0	0	---	0.00	30.190 
00:10	30.4	30.4	30.4	87	27.0	0	0	---	0.00	30.190 
00:15	30.4	30.4	30.4	87	27.0	0	0	---	0.00	30.185 
00:20	30.3	30.3	30.3	88	27.2	0	0	---	0.00	30.185 
00:25	30.3	30.3	30.3	88	27.2	0	0	---	0.00	30.185 
00:30	30.1	30.1	30.1	88	27.0	0	0	---	0.00	30.183 
00:35	30.1	30.1	30.1	88	27.0	0	0	---	0.00	30.183 
00:40	30.1	30.1	30.1	89	27.3	0	0	---	0.00	30.183 
00:45	30.0	30.0	30.0	89	27.2	0	0	---	0.00	30.180 
00:50	30.0	30.0	30.0	89	27.2	0	0	---	0.00	30.180 
00:55	29.8	29.8	29.8	89	27.0	0	0	---	0.00	30.180 
01:00	29.8	29.8	29.8	89	27.0	0	0	---	0.00	30.177 
01:05	29.8	29.8	29.8	90	27.2	0	0	---	0.00	30.177 
01:10	29.8	29.8	29.8	91	27.5	0	0	---	0.00	30.177 
01:15	29.8	29.8	29.8	91	27.5	0	0	---	0.00	30.177 
01:20	29.8	29.8	29.8	91	27.5	0	0	---	0.00	30.177 
01:25	29.7	29.7	29.7	91	27.4	0	0	---	0.00	30.177 
01:30	29.7	29.7	29.7	91	27.4	0	0	---	0.00	30.177 
01:35	29.5	29.5	29.5	91	27.2	0	0	---	0.00	30.177 
01:40	29.4	29.4	29.4	91	27.1	0	0	---	0.00	30.177 
01:45	29.4	29.4	29.4	91	27.1	0	0	---	0.00	30.177 
01:50	29.3	29.3	29.3	91	27.0	0	0	---	0.00	30.177 
01:55	29.3	29.3	29.3	91	27.0	0	0	---	0.00	30.177 
02:00	29.3	29.3	29.3	91	27.0	0	0	---	0.00	30.177 
02:05	29.3	29.3	29.3	92	27.3	0	0	---	0.00	30.177 
02:10	29.4	29.4	29.4	92	27.4	0	0	---	0.00	30.177 
02:15	29.3	29.3	29.3	92	27.3	0	0	---	0.00	30.174 
02:20	29.3	29.3	29.3	92	27.3	0	0	---	0.00	30.174 
02:25	29.1	29.1	29.1	92	27.1	0	0	---	0.00	30.174 
02:30	29.1	29.1	29.1	92	27.1	0	0	---	0.00	30.175 
02:35	29.0	29.0	29.0	92	27.0	0	0	---	0.00	30.175 
02:40	29.0	29.0	29.0	92	27.0	0	0	---	0.00	30.175 
02:45	29.0	29.0	29.0	92	27.0	0	0	---	0.00	30.175 
02:50	29.0	29.0	29.0	92	27.0	0	0	---	0.00	30.175 
02:55	29.0	29.0	29.0	92	27.0	0	0	---	0.00	30.175 
03:00	29.0	29.0	29.0	92	27.0	0	0	---	0.00	30.175 
03:05	29.0	29.0	29.0	92	27.0	0	0	---	0.00	30.175 
03:10	29.0	29.0	29.0	92	27.0	0	0	---	0.00	30.175 
03:15	29.0	29.0	29.0	92	27.0	0	0	---	0.00	30.175 
03:20	29.0	29.0	29.0	92	27.0	0	0	---	0.00	30.175 
03:25	29.1	29.1	29.1	92	27.1	0	0	---	0.00	30.175 
03:30	29.3	29.3	29.3	92	27.3	0	0	---	0.00	30.175 
03:35	29.5	29.5	29.5	92	27.5	0	0	---	0.00	30.175 
03:40	29.8	29.8	29.8	92	27.8	0	0	---	0.00	30.175 
03:45	30.4	30.4	30.4	92	28.4	0	1	270	0.00	30.169 
03:50	30.6	30.6	30.6	91	28.3	0	0	---	0.00	30.169 
03:55	30.7	30.7	30.7	91	28.4	0	0	---	0.00	30.169 
04:00	31.0	31.0	31.0	90	28.4	0	0	---	0.00	30.172 
04:05	31.2	31.2	31.2	90	28.6	0	0	---	0.00	30.172 
04:10	31.5	31.5	31.5	88	28.4	0	0	---	0.00	30.172 
04:15	31.6	31.6	31.6	87	28.2	0	0	---	0.00	30.165 
04:20	31.9	31.9	31.9	86	28.2	0	1	270	0.00	30.165 
04:25	32.1	32.1	32.1	85	28.1	0	0	---	0.00	30.165 
04:30	32.2	32.2	32.2	85	28.2	0	0	---	0.00	30.161 
04:35	32.4	32.4	32.4	84	28.1	0	0	---	0.00	30.161 
04:40	32.5	32.5	32.5	85	28.5	0	0	---	0.00	30.161 
04:45	32.7	32.7	32.7	84	28.4	0	0	---	0.00	30.159 
04:50	32.9	32.9	32.9	84	28.6	0	0	---	0.00	30.159 
04:55	33.1	33.1	33.1	84	28.8	0	0	---	0.00	30.159 
05:00	33.2	33.2	33.2	83	28.6	0	2	225	0.00	30.156 
05:05	33.5	33.5	33.5	83	28.9	0	2	225	0.00	30.156 
05:10	33.7	33.7	33.7	81	28.5	1	2	202	0.00	30.156 
05:15	33.7	33.7	33.7	81	28.5	0	2	202	0.00	30.158 
05:20	33.8	33.8	33.8	81	28.6	0	2	180	0.00	30.158 
05:25	33.7	33.7	33.7	81	28.5	1	2	180	0.00	30.158 
05:30	33.7	33.7	33.7	81	28.5	0	1	180	0.00	30.159 
05:35	33.5	33.5	33.5	81	28.3	0	0	---	0.00	30.159 
05:40	33.4	33.4	33.4	81	28.2	0	0	---	0.00	30.159 
05:45	33.2	33.2	33.2	82	28.3	0	0	---	0.00	30.158 
05:50	33.1	33.1	33.1	82	28.2	0	1	180	0.00	30.158 
05:55	32.9	32.9	32.9	82	28.0	0	3	180	0.00	30.158 
06:00	32.9	32.9	32.9	83	28.3	1	2	135	0.00	30.161 
06:05	33.1	33.1	33.1	82	28.2	1	2	135	0.00	30.161 
06:10	33.2	33.2	33.2	82	28.3	0	2	112	0.00	30.161 
06:15	33.2	33.2	33.2	83	28.6	0	1	112	0.00	30.163 
06:20	33.2	33.2	33.2	82	28.3	1	3	112	0.00	30.163 
06:25	33.2	33.2	33.2	82	28.3	1	2	112	0.00	30.163 
06:30	33.2	33.2	33.2	82	28.3	0	2	112	0.00	30.163 
06:35	33.1	33.1	33.1	82	28.2	1	2	112	0.00	30.163 
06:40	33.1	33.1	33.1	82	28.2	1	3	112	0.00	30.163 
06:45	32.9	32.9	32.9	82	28.0	1	2	112	0.00	30.164 
06:50	32.9	32.9	32.9	83	28.3	0	2	112	0.00	30.164 
06:55	32.8	32.8	32.8	83	28.2	0	2	112	0.00	30.164 
07:00	32.7	32.7	32.7	83	28.1	0	1	112	0.00	30.167 
07:05	32.7	32.7	32.7	83	28.1	0	1	112	0.00	30.167 
07:10	32.7	32.7	32.7	83	28.1	0	2	112	0.00	30.167 
07:15	32.8	32.8	32.8	83	28.2	0	2	112	0.00	30.171 
07:20	32.8	32.8	32.8	83	28.2	0	2	90	0.00	30.171 
07:25	32.9	32.9	32.9	83	28.3	1	2	90	0.00	30.171 
07:30	32.9	32.9	32.9	83	28.3	0	1	90	0.00	30.172 
07:35	33.1	33.1	33.1	83	28.5	0	2	90	0.00	30.172 
07:40	33.2	33.2	33.2	83	28.6	0	1	90	0.00	30.172 
07:45	33.4	33.4	33.4	82	28.5	0	2	90	0.00	30.172 
07:50	33.5	33.5	33.5	81	28.3	1	3	90	0.00	30.172 
07:55	33.8	33.8	33.8	82	28.9	0	2	68	0.00	30.172 
08:00	34.0	34.0	34.0	81	28.8	1	4	68	0.00	30.167 
08:05	34.1	34.1	34.1	81	28.9	0	2	90	0.00	30.167 
08:10	34.3	34.3	34.3	81	29.1	1	2	90	0.00	30.167 
08:15	34.4	34.4	34.4	81	29.2	0	2	90	0.00	30.179 
08:20	34.6	34.6	34.6	81	29.4	1	2	90	0.00	30.179 
08:25	34.6	34.6	34.6	81	29.4	1	2	90	0.00	30.179 
08:30	34.9	34.9	34.9	81	29.7	1	3	90	0.00	30.166 
08:35	35.0	35.0	35.0	81	29.8	1	3	90	0.00	30.166 
08:40	35.2	35.2	35.2	81	30.0	1	2	90	0.00	30.166 
08:45	35.3	35.3	35.3	81	30.1	1	3	90	0.00	30.173 
08:50	35.6	35.6	35.6	81	30.4	1	3	90	0.00	30.173 
08:55	35.8	35.8	35.8	81	30.6	1	2	90	0.00	30.173 
09:00	35.9	35.9	35.9	81	30.6	1	3	90	0.00	30.175 
09:05	36.2	36.2	36.2	81	30.9	1	2	90	0.00	30.175 
09:10	36.2	36.2	36.2	81	30.9	1	3	90	0.00	30.175 
09:15	36.3	36.3	36.3	82	31.3	1	3	90	0.00	30.168 
09:20	36.5	36.5	36.5	82	31.5	0	2	90	0.00	30.168 
09:25	36.6	36.6	36.6	82	31.6	1	2	90	0.00	30.168 
09:30	36.9	36.9	36.9	82	31.9	1	4	90	0.00	30.167 
09:35	37.2	37.2	37.2	82	32.2	1	3	90	0.00	30.167 
09:40	37.5	37.5	37.5	82	32.5	0	2	90	0.00	30.167 
09:45	37.8	37.8	37.8	81	32.5	1	3	90	0.00	30.172 
09:50	38.0	38.0	38.0	81	32.7	1	2	90	0.00	30.172 
09:55	38.3	38.3	38.3	81	33.0	1	4	90	0.00	30.172 
10:00	38.6	38.6	38.6	80	33.0	1	4	90	0.00	30.169 
10:05	38.9	38.9	38.9	79	33.0	1	3	90	0.00	30.169 
10:10	39.1	39.1	39.1	80	33.5	1	4	90	0.00	30.169 
10:15	39.2	39.2	39.2	79	33.2	1	3	90	0.00	30.168 
10:20	39.5	39.5	39.5	78	33.2	0	3	90	0.00	30.168 
10:25	39.8	39.8	39.8	78	33.5	1	3	90	0.00	30.168 
10:30	39.9	39.9	39.9	77	33.3	1	3	90	0.00	30.172 
10:35	40.1	40.1	40.1	77	33.5	1	5	112	0.00	30.172 
10:40	40.3	40.3	40.3	78	34.0	1	4	112	0.00	30.172 
10:45	40.5	40.5	40.5	77	33.9	1	3	112	0.00	30.170 
10:50	40.6	40.6	40.6	77	34.0	1	3	90	0.00	30.170 
10:55	40.9	40.9	40.9	76	33.9	1	4	90	0.00	30.170 
11:00	41.1	41.1	41.1	76	34.1	0	3	90	0.00	30.165 
11:05	41.3	41.3	41.3	75	34.0	1	3	112	0.00	30.165 
11:10	41.5	41.5	41.5	75	34.2	1	4	90	0.00	30.165 
11:15	41.6	41.6	41.6	74	33.9	1	4	90	0.00	30.164 
11:20	41.8	41.8	41.8	73	33.8	2	3	90	0.00	30.164 
11:25	42.1	42.1	42.1	73	34.1	1	3	90	0.00	30.164 
11:30	42.2	42.2	42.2	72	33.8	1	5	112	0.00	30.161 
11:35	42.3	42.3	42.3	72	33.9	1	4	112	0.00	30.161 
11:40	42.3	42.3	42.3	72	33.9	1	4	135	0.00	30.161 
11:45	42.5	42.5	42.5	71	33.8	1	3	112	0.00	30.156 
11:50	42.5	42.5	42.5	71	33.8	1	4	135	0.00	30.156 
11:55	42.6	42.6	42.6	71	33.9	1	3	112	0.00	30.156 
12:00	42.6	42.6	42.6	72	34.2	1	4	112	0.00	30.153 
12:05	42.8	42.8	42.8	73	34.8	1	3	90	0.00	30.153 
12:10	42.6	42.6	42.6	73	34.6	1	4	90	0.00	30.153 
12:15	42.6	42.6	42.6	74	34.9	1	3	90	0.00	30.160 
12:20	42.6	42.6	42.6	73	34.6	1	3	112	0.00	30.160 
12:25	42.8	42.8	42.8	74	35.1	1	4	90	0.00	30.160 
12:30	42.8	42.8	42.8	73	34.8	1	2	112	0.00	30.163 
12:35	42.8	42.8	42.8	74	35.1	1	3	112	0.00	30.163 
12:40	42.9	42.9	42.9	74	35.2	1	2	112	0.00	30.163 
12:45	42.9	42.9	42.9	76	35.9	1	4	112	0.01	30.162 
12:50	42.8	42.8	42.8	77	36.1	1	4	90	0.00	30.162 
12:55	42.8	42.8	42.8	78	36.4	1	2	112	0.00	30.162 
13:00	42.6	42.6	42.6	80	36.9	0	2	112	0.00	30.157 
13:05	42.6	42.6	42.6	81	37.2	1	2	112	0.00	30.157 
13:10	42.6	42.6	42.6	81	37.2	1	3	90	0.00	30.157 
13:15	42.6	42.6	42.6	80	36.9	2	4	90	0.00	30.147 
13:20	42.6	42.6	42.6	81	37.2	1	3	90	0.00	30.147 
13:25	42.6	42.6	42.6	80	36.9	2	5	90	0.00	30.147 
13:30	42.6	42.6	42.6	81	37.2	1	3	112	0.01	30.143 
13:35	42.6	42.6	42.6	82	37.5	1	5	90	0.00	30.143 
13:40	42.5	42.5	42.5	83	37.7	1	3	90	0.00	30.143 
13:45	42.3	42.3	42.3	83	37.5	2	5	112	0.01	30.136 
13:50	42.2	42.2	42.2	84	37.7	1	4	112	0.00	30.136 
13:55	42.1	42.1	42.1	84	37.6	2	5	112	0.00	30.136 
14:00	42.1	42.1	42.1	86	38.2	1	5	90	0.01	30.131 
14:05	41.9	41.9	41.9	86	38.0	2	6	90	0.00	30.131 
14:10	41.9	41.9	41.9	86	38.0	1	4	112	0.01	30.131 
14:15	41.8	41.8	41.8	86	37.9	1	3	112	0.00	30.131 
14:20	41.6	41.6	41.6	86	37.7	1	4	90	0.00	30.131 
14:25	41.5	41.5	41.5	87	37.9	1	4	90	0.01	30.131 
14:30	41.5	41.5	41.5	88	38.2	1	3	90	0.00	30.124 
14:35	41.5	41.5	41.5	88	38.2	2	6	112	0.00	30.124 
14:40	41.3	41.3	41.3	87	37.7	2	6	90	0.00	30.124 
14:45	41.3	41.3	41.3	88	38.0	1	4	112	0.01	30.117 
14:50	41.3	41.3	41.3	88	38.0	1	4	112	0.01	30.117 
14:55	41.2	41.2	41.2	88	37.9	2	4	112	0.00	30.117 
15:00	41.2	41.2	41.2	89	38.2	1	4	90	0.01	30.113 
15:05	41.2	41.2	41.2	89	38.2	1	4	90	0.00	30.113 
15:10	41.2	41.2	41.2	89	38.2	2	4	90	0.01	30.113 
15:15	41.2	41.2	41.2	90	38.5	1	5	112	0.00	30.105 
15:20	41.2	41.2	41.2	90	38.5	2	5	90	0.01	30.105 
15:25	41.2	41.2	41.2	91	38.8	2	6	112	0.00	30.105 
15:30	41.2	41.2	41.2	90	38.5	2	6	112	0.01	30.100 
15:35	41.2	41.2	41.2	91	38.8	2	4	90	0.00	30.100 
15:40	41.1	41.1	41.1	89	38.1	3	6	112	0.00	30.100 
15:45	40.9	40.9	40.9	89	37.9	2	7	112	0.01	30.099 
15:50	40.8	40.8	40.8	89	37.8	3	7	90	0.00	30.099 
15:55	40.8	40.8	40.8	90	38.1	2	7	90	0.00	30.099 
16:00	40.6	38.0	40.6	89	37.6	4	9	90	0.00	30.099 
16:05	40.5	37.9	40.5	89	37.5	4	10	90	0.00	30.099 
16:10	40.5	40.5	40.5	90	37.8	3	6	90	0.01	30.099 
16:15	40.5	40.5	40.5	90	37.8	3	7	90	0.00	30.097 
16:20	40.5	40.5	40.5	91	38.1	3	5	90	0.00	30.097 
16:25	40.5	40.5	40.5	92	38.4	3	5	90	0.00	30.097 
16:30	40.6	38.0	40.6	92	38.5	4	10	90	0.01	30.090 
16:35	40.6	40.6	40.6	92	38.5	3	6	90	0.00	30.090 
16:40	40.5	40.5	40.5	92	38.4	3	7	90	0.00	30.090 
16:45	40.5	37.9	40.5	92	38.4	4	9	90	0.00	30.092 
16:50	40.3	37.7	40.3	91	37.9	4	9	90	0.00	30.092 
16:55	40.3	40.3	40.3	91	37.9	2	6	90	0.00	30.092 
17:00	40.3	40.3	40.3	92	38.2	3	7	90	0.00	30.086 
17:05	40.3	40.3	40.3	92	38.2	3	9	90	0.01	30.086 
17:10	40.2	36.7	40.2	92	38.1	5	12	90	0.00	30.086 
17:15	40.2	36.7	40.2	92	38.1	5	12	90	0.00	30.074 
17:20	40.2	40.2	40.2	92	38.1	3	11	90	0.00	30.074 
17:25	40.2	36.7	40.2	92	38.1	5	9	90	0.00	30.074 
17:30	40.1	36.6	40.1	92	38.0	5	11	90	0.00	30.065 
17:35	40.2	37.5	40.2	92	38.1	4	14	90	0.01	30.065 
17:40	40.1	36.6	40.1	92	38.0	5	14	90	0.00	30.065 
17:45	40.1	37.4	40.1	92	38.0	4	10	90	0.00	30.062 
17:50	40.1	36.6	40.1	92	38.0	5	10	90	0.00	30.062 
17:55	40.1	37.4	40.1	92	38.0	4	9	90	0.00	30.062 
18:00	40.1	37.4	40.1	92	38.0	4	9	90	0.00	30.066 
18:05	40.1	40.1	40.1	92	38.0	2	5	90	0.00	30.066 
18:10	40.1	40.1	40.1	93	38.2	3	7	90	0.00	30.066 
18:15	40.1	36.6	40.1	92	38.0	5	11	90	0.00	30.062 
18:20	39.9	36.4	39.9	92	37.8	5	9	90	0.00	30.062 
18:25	39.9	39.9	39.9	92	37.8	3	8	90	0.01	30.062 
18:30	39.9	37.2	39.9	93	38.0	4	10	90	0.00	30.056 
18:35	39.8	37.1	39.8	93	37.9	4	10	90	0.00	30.056 
18:40	39.8	37.1	39.8	93	37.9	4	10	90	0.00	30.056 
18:45	39.6	36.0	39.6	92	37.5	5	12	90	0.01	30.055 
18:50	39.5	36.7	39.5	92	37.4	4	9	90	0.00	30.055 
18:55	39.5	36.7	39.5	93	37.6	4	7	90	0.01	30.055 
19:00	39.5	36.7	39.5	93	37.6	4	6	90	0.00	30.057 
19:05	39.5	39.5	39.5	93	37.6	3	6	90	0.00	30.057 
19:10	39.5	39.5	39.5	94	37.9	3	10	90	0.00	30.057 
19:15	39.5	39.5	39.5	94	37.9	3	8	90	0.00	30.056 
19:20	39.5	39.5	39.5	94	37.9	2	6	90	0.00	30.056 
19:25	39.5	39.5	39.5	94	37.9	3	7	90	0.00	30.056 
19:30	39.5	39.5	39.5	94	37.9	3	9	90	0.00	30.058 
19:35	39.5	39.5	39.5	94	37.9	3	6	90	0.00	30.058 
19:40	39.5	39.5	39.5	94	37.9	3	6	90	0.00	30.058 
19:45	39.5	39.5	39.5	94	37.9	3	6	90	0.01	30.055 
19:50	39.5	39.5	39.5	95	38.2	3	7	90	0.00	30.055 
19:55	39.3	39.3	39.3	95	38.0	3	7	90	0.00	30.055 
20:00	39.3	39.3	39.3	95	38.0	3	5	90	0.00	30.063 
20:05	39.5	39.5	39.5	95	38.2	3	6	90	0.00	30.063 
20:10	39.5	36.7	39.5	95	38.2	4	10	90	0.00	30.063 
20:15	39.5	39.5	39.5	95	38.2	3	5	90	0.00	30.061 
20:20	39.5	39.5	39.5	95	38.2	2	7	90	0.00	30.061 
20:25	39.5	36.7	39.5	95	38.2	4	9	90	0.00	30.061 
20:30	39.3	36.5	39.3	95	38.0	4	9	90	0.00	30.051 
20:35	39.3	36.5	39.3	95	38.0	4	11	90	0.00	30.051 
20:40	39.3	36.5	39.3	95	38.0	4	7	90	0.00	30.051 
20:45	39.3	36.5	39.3	95	38.0	4	9	112	0.01	30.046 
20:50	39.3	39.3	39.3	95	38.0	3	7	112	0.00	30.046 
20:55	39.3	36.5	39.3	95	38.0	4	11	90	0.01	30.046 
21:00	39.3	39.3	39.3	95	38.0	3	7	90	0.00	30.048 
21:05	39.3	39.3	39.3	95	38.0	3	9	90	0.00	30.048 
21:10	39.3	39.3	39.3	95	38.0	3	7	90	0.00	30.048 
21:15	39.5	39.5	39.5	95	38.2	3	9	90	0.00	30.039 
21:20	39.5	39.5	39.5	95	38.2	3	7	90	0.00	30.039 
21:25	39.5	36.7	39.5	95	38.2	4	6	90	0.00	30.039 
21:30	39.5	39.5	39.5	95	38.2	2	10	90	0.00	30.037 
21:35	39.5	39.5	39.5	95	38.2	3	5	90	0.00	30.037 
21:40	39.5	39.5	39.5	95	38.2	3	7	90	0.00	30.037 
21:45	39.5	39.5	39.5	95	38.2	3	5	90	0.00	30.033 
21:50	39.5	39.5	39.5	95	38.2	3	9	90	0.00	30.033 
21:55	39.5	39.5	39.5	95	38.2	2	5	90	0.00	30.033 
22:00	39.5	39.5	39.5	95	38.2	3	5	90	0.00	30.032 
22:05	39.5	39.5	39.5	96	38.5	2	6	90	0.00	30.032 
22:10	39.5	39.5	39.5	96	38.5	3	6	90	0.01	30.032 
22:15	39.5	39.5	39.5	96	38.5	3	10	90	0.00	30.026 
22:20	39.5	39.5	39.5	96	38.5	3	6	90	0.00	30.026 
22:25	39.5	39.5	39.5	96	38.5	2	6	90	0.00	30.026 
22:30	39.5	39.5	39.5	96	38.5	2	6	68	0.00	30.029 
22:35	39.5	39.5	39.5	96	38.5	3	7	90	0.00	30.029 
22:40	39.5	39.5	39.5	96	38.5	2	6	90	0.00	30.029 
22:45	39.6	39.6	39.6	96	38.6	1	4	90	0.00	30.028 
22:50	39.6	39.6	39.6	96	38.6	2	5	90	0.00	30.028 
22:55	39.5	39.5	39.5	96	38.5	2	5	90	0.00	30.028 
23:00	39.5	39.5	39.5	96	38.5	2	6	90	0.00	30.018 
23:05	39.5	39.5	39.5	96	38.5	3	6	90	0.00	30.018 
23:10	39.5	39.5	39.5	96	38.5	3	7	90	0.00	30.018 
23:15	39.5	39.5	39.5	96	38.5	2	4	90	0.00	30.021 
23:20	39.5	39.5	39.5	96	38.5	2	5	90	0.01	30.021 
23:25	39.5	39.5	39.5	96	38.5	2	5	90	0.00	30.021 
23:30	39.5	39.5	39.5	96	38.5	3	7	90	0.00	30.011 
23:35	39.5	39.5	39.5	96	38.5	3	6	90	0.00	30.011 
23:40	39.5	39.5	39.5	96	38.5	2	5	90	0.00	30.011 
23:45	39.5	36.7	39.5	96	38.5	4	7	90	0.00	30.012 
23:50	39.6	39.6	39.6	96	38.6	2	7	90	0.00	30.012 
23:55	39.6	39.6	39.6	96	38.6	2	7	90	0.00	30.012 

CoCoRaHS
IN-AL-39
A2 Web Hosting
Creative Commons License
GoDaddy
Look for:

loaded 2017-10-17 18:30:15 • last modified 2010-11-18 10:43:29
Privacy PolicyDisclaimer
• wx.awcolley.com is powered by PmWiki v.2002016 •
• all content (unless otherwise noted) © 2017 A W Colley